• Join FlightAware (Why Join?)
  • Login
  • US Flag 
10:52AM EDT


 

Airport Tracker/Info


-or-


 

Live Flight TrackerFlight Track Log ✈ AMF1026 ✈ 11-Oct-2013 ✈ KALB - KCVG

Flight Track Log - Related Links

Times and Time Zones

All times are in EDT time to prevent confusion due to time zone crossing. See the AMF1026 flight status page for this flight to view local times or setup timezone preferences in your user account.

Time Position Orientation Groundspeed Altitude Reporting Facility
EDT Latitude Longitude Course Direction KTS MPH feet Rate Location/Type
08:54PM 42.7611 -73.8089 354° North 138 159 1,000  Level Boston Center
08:55PM 42.7839 -73.8122 354° North 170 196 2,000 1,800 Climbing Boston Center
08:56PM 42.7894 -73.8800 276° West 202 232 3,800 1,620 Climbing Boston Center
08:57PM 42.7636 -73.9417 240° Southwest 212 244 5,400 1,440 Climbing Boston Center
08:58PM 42.7375 -74.0147 244° Southwest 212 244 6,800 1,440 Climbing Boston Center
08:59PM 42.7178 -74.0875 250° West 212 244 8,400 1,320 Climbing Boston Center
09:00PM 42.6997 -74.1747 254° West 217 250 9,500 1,020 Climbing Boston Center
09:01PM 42.6842 -74.2478 254° West 228 262 10,500 1,140 Climbing Boston Center
09:02PM 42.6700 -74.3378 258° West 228 262 11,900 1,200 Climbing Boston Center
09:03PM 42.6564 -74.4106 256° West 223 257 13,000 1,140 Climbing Boston Center
09:04PM 42.6422 -74.4978 258° West 223 257 14,200 1,020 Climbing Boston Center
09:05PM 42.6244 -74.5678 251° West 218 251 15,000 780 Climbing Boston Center
09:06PM 42.6019 -74.6517 250° West 218 251 15,800 660 Climbing Boston Center
09:07PM 42.5881 -74.7217 255° West 223 257 16,400 720 Climbing Boston Center
09:08PM 42.5739 -74.8028 257° West 228 262 17,300 720 Climbing Boston Center
09:09PM 42.5575 -74.8839 255° West 228 262 17,900 540 Climbing Boston Center
09:10PM 42.5392 -74.9622 252° West 228 262 18,400 540 Climbing Boston Center
09:11PM 42.5144 -75.0428 247° West 223 257 19,000 600 Climbing Boston Center
09:12PM 42.4897 -75.1233 247° West 230 265 19,700 480 Climbing Boston Center
09:13PM 42.4647 -75.2042 247° West 230 265 20,000 60 Climbing Boston Center
09:15PM 42.3972 -75.3475 238° Southwest 245 282 20,000  Level New York Center
09:16PM 42.3628 -75.4264 239° Southwest 250 288 20,000  Level New York Center
09:17PM 42.3325 -75.5111 244° Southwest 250 288 20,000  Level New York Center
09:18PM 42.3042 -75.5933 245° Southwest 250 288 20,000  Level New York Center
09:19PM 42.2758 -75.6781 246° West 250 288 20,000  Level New York Center
09:20PM 42.2472 -75.7628 246° West 250 288 20,000  Level New York Center
09:21PM 42.2250 -75.8478 251° West 250 288 20,000  Level New York Center
09:22PM 42.2025 -75.9356 251° West 250 288 20,000  Level New York Center
09:23PM 42.1800 -76.0206 250° West 245 282 20,000  Level New York Center
09:24PM 42.1594 -76.1086 253° West 245 282 20,000  Level New York Center
09:25PM 42.1306 -76.1928 245° Southwest 245 282 20,000  Level New York Center
09:26PM 42.0978 -76.2711 241° Southwest 250 288 20,000  Level New York Center
09:27PM 42.0608 -76.3519 238° Southwest 256 295 20,000  Level New York Center
09:28PM 42.0239 -76.4297 237° Southwest 256 295 20,000  Level New York Center
09:29PM 41.9867 -76.5075 237° Southwest 256 295 20,000  Level New York Center
09:30PM 41.9475 -76.5850 236° Southwest 256 295 20,000  Level New York Center
09:31PM 41.9125 -76.6656 240° Southwest 256 295 20,000  Level New York Center
09:32PM 41.8731 -76.7428 236° Southwest 256 295 20,000  Level New York Center
09:33PM 41.8358 -76.8203 237° Southwest 251 289 20,000  Level New York Center
09:34PM 41.8008 -76.8978 239° Southwest 251 289 20,000  Level New York Center
09:35PM 41.7461 -77.0358 242° Southwest 253 291 20,000  Level Cleveland Center
09:37PM 41.7092 -77.1367 244° Southwest 253 291 20,000  Level Cleveland Center
09:38PM 41.6808 -77.2225 246° West 252 290 20,000  Level Cleveland Center
09:39PM 41.6558 -77.3081 249° West 247 284 20,000  Level Cleveland Center
09:40PM 41.6344 -77.3978 252° West 253 291 20,000  Level Cleveland Center
09:41PM 41.6158 -77.4817 253° West 249 287 20,000  Level Cleveland Center
09:42PM 41.5950 -77.5719 253° West 258 297 20,000  Level Cleveland Center
09:43PM 41.5736 -77.6789 255° West 251 289 20,000  Level Cleveland Center
09:44PM 41.5583 -77.7681 257° West 249 287 20,000  Level Cleveland Center
09:45PM 41.5439 -77.8578 258° West 249 287 20,000  Level Cleveland Center
09:46PM 41.5269 -77.9461 256° West 249 287 20,000  Level Cleveland Center
09:47PM 41.4969 -78.0306 245° Southwest 255 293 20,000  Level Cleveland Center
09:48PM 41.4628 -78.1106 240° Southwest 253 291 20,000  Level Cleveland Center
09:49PM 41.4292 -78.1908 241° Southwest 249 287 20,000  Level Cleveland Center
09:50PM 41.3883 -78.2881 241° Southwest 250 288 20,000  Level Cleveland Center
09:51PM 41.3558 -78.3725 243° Southwest 251 289 20,000  Level Cleveland Center
09:52PM 41.3258 -78.4558 244° Southwest 252 290 20,000  Level Cleveland Center
09:53PM 41.2961 -78.5406 245° Southwest 264 304 20,000  Level Cleveland Center
09:54PM 41.2672 -78.6244 245° Southwest 256 295 20,000  Level Cleveland Center
09:55PM 41.2411 -78.7125 249° West 260 299 20,000  Level Cleveland Center
09:56PM 41.2150 -78.7983 248° West 258 297 20,000  Level Cleveland Center
09:57PM 41.1914 -78.8844 250° West 257 296 20,000  Level Cleveland Center
09:58PM 41.1664 -78.9778 250° West 253 291 20,000  Level Cleveland Center
09:59PM 41.1431 -79.0619 250° West 250 288 20,000  Level Cleveland Center
10:00PM 41.1144 -79.1647 250° West 265 305 20,000  Level Cleveland Center
10:01PM 41.0922 -79.2506 251° West 251 289 20,000  Level Cleveland Center
10:02PM 41.0700 -79.3392 252° West 252 290 20,000  Level Cleveland Center
10:03PM 41.0481 -79.4264 252° West 251 289 20,000  Level Cleveland Center
10:04PM 41.0267 -79.5147 252° West 253 291 20,000  Level Cleveland Center
10:05PM 41.0069 -79.6056 254° West 258 297 20,000  Level Cleveland Center
10:06PM 40.9853 -79.6914 252° West 250 288 20,000  Level Cleveland Center
10:07PM 40.9581 -79.7964 251° West 253 291 20,000  Level Cleveland Center
10:08PM 40.9339 -79.8842 250° West 256 295 20,000  Level Cleveland Center
10:09PM 40.9083 -79.9714 249° West 256 295 20,000  Level Cleveland Center
10:10PM 40.8817 -80.0567 248° West 254 292 20,000  Level Cleveland Center
10:11PM 40.8536 -80.1444 247° West 256 295 20,000  Level Cleveland Center
10:12PM 40.8289 -80.2303 249° West 256 295 20,000  Level Cleveland Center
10:13PM 40.8150 -80.3400 261° West 255 293 20,000  Level Cleveland Center
10:14PM 40.8086 -80.4272 265° West 254 292 20,000  Level Cleveland Center
10:15PM 40.8008 -80.5217 264° West 256 295 20,000  Level Cleveland Center
10:16PM 40.7961 -80.6153 266° West 256 295 20,000  Level Cleveland Center
10:18PM 40.7942 -80.7061 268° West 253 291 20,000  Level Cleveland Center
10:19PM 40.7703 -80.7906 250° West 261 300 20,000  Level Cleveland Center
10:20PM 40.7294 -80.8864 241° Southwest 253 291 20,000  Level Cleveland Center
10:21PM 40.6886 -80.9617 234° Southwest 255 293 20,000  Level Cleveland Center
10:22PM 40.6444 -81.0328 231° Southwest 253 291 20,000  Level Cleveland Center
10:23PM 40.5881 -81.1186 229° Southwest 258 297 20,000  Level Cleveland Center
10:24PM 40.5419 -81.1864 228° Southwest 252 290 20,000  Level Cleveland Center
10:25PM 40.4928 -81.2544 226° Southwest 256 295 20,000  Level Cleveland Center
10:26PM 40.4433 -81.3197 225° Southwest 254 292 20,000  Level Cleveland Center
10:27PM 40.3822 -81.3964 224° Southwest 254 292 20,000  Level Cleveland Center
10:28PM 40.3531 -81.4361 226° Southwest 255 293 20,000  Level Indianapolis Center
10:29PM 40.3006 -81.4992 222° Southwest 253 291 20,000  Level Indianapolis Center
10:30PM 40.2475 -81.5625 222° Southwest 254 292 20,000  Level Indianapolis Center
10:31PM 40.1939 -81.6236 221° Southwest 253 291 20,000  Level Indianapolis Center
10:32PM 40.1383 -81.6806 218° Southwest 252 290 20,000  Level Indianapolis Center
10:33PM 40.0817 -81.7394 218° Southwest 255 293 20,000  Level Indianapolis Center
10:34PM 40.0275 -81.8056 223° Southwest 251 289 20,000  Level Indianapolis Center
10:35PM 39.9775 -81.8711 225° Southwest 254 292 20,000  Level Indianapolis Center
10:36PM 39.9294 -81.9369 226° Southwest 252 290 20,000  Level Indianapolis Center
10:37PM 39.8783 -82.0003 224° Southwest 254 292 20,000  Level Indianapolis Center
10:38PM 39.8294 -82.0647 225° Southwest 252 290 20,000  Level Indianapolis Center
10:39PM 39.7817 -82.1314 227° Southwest 252 290 20,000  Level Indianapolis Center
10:40PM 39.7400 -82.2050 234° Southwest 252 290 20,000  Level Indianapolis Center
10:41PM 39.6967 -82.2953 238° Southwest 248 285 20,000  Level Indianapolis Center
10:42PM 39.6619 -82.3725 240° Southwest 247 284 20,000  Level Indianapolis Center
10:43PM 39.6306 -82.4533 243° Southwest 251 289 20,000  Level Indianapolis Center
10:44PM 39.5997 -82.5322 243° Southwest 247 284 20,000  Level Indianapolis Center
10:45PM 39.5719 -82.6147 246° West 249 287 20,000  Level Indianapolis Center
10:46PM 39.5464 -82.6953 248° West 244 281 20,000  Level Indianapolis Center
10:47PM 39.5208 -82.7781 248° West 246 283 20,000  Level Indianapolis Center
10:48PM 39.4967 -82.8608 249° West 247 284 20,000  Level Indianapolis Center
10:49PM 39.4736 -82.9436 250° West 245 282 20,000 -300 Level Indianapolis Center
10:50PM 39.4506 -83.0303 251° West 251 289 19,400 -660 Descending Indianapolis Center
10:51PM 39.4247 -83.1222 250° West 267 307 18,700 -840 Descending Indianapolis Center
10:52PM 39.3933 -83.2378 251° West 282 325 17,800 -840 Descending Indianapolis Center
10:53PM 39.3681 -83.3325 251° West 279 321 17,100 -960 Descending Indianapolis Center
10:54PM 39.3453 -83.4328 254° West 287 330 15,900 -1,020 Descending Indianapolis Center
10:55PM 39.3256 -83.5311 255° West 285 328 15,100 -900 Descending Indianapolis Center
10:56PM 39.3044 -83.6294 255° West 284 327 14,100 -960 Descending Indianapolis Center
10:57PM 39.2847 -83.7289 256° West 285 328 13,200 -840 Descending Indianapolis Center
10:58PM 39.2661 -83.8283 256° West 285 328 12,500 -840 Descending Indianapolis Center
10:59PM 39.2469 -83.9275 256° West 284 327 11,500 -900 Descending Indianapolis Center
11:00PM 39.2231 -84.0242 252° West 283 326 10,700 -720 Descending Indianapolis Center
11:01PM 39.1703 -84.1008 228° Southwest 285 328 10,100 -900 Descending Indianapolis Center
11:02PM 39.1083 -84.1617 217° Southwest 281 323 8,900 -1,020 Descending Indianapolis Center
11:03PM 39.0506 -84.2247 220° Southwest 275 316 8,100 -840 Descending Indianapolis Center
11:04PM 38.9975 -84.2853 222° Southwest 262 302 7,200 -1,140 Descending Indianapolis Center
11:05PM 38.9658 -84.3861 248° West 260 299 5,900 -1,200 Descending Indianapolis Center
11:06PM 38.9617 -84.4742 267° West 255 293 4,800 -600 Descending Indianapolis Center
11:07PM 38.9586 -84.5606 267° West 253 291 4,800 -780 Level Indianapolis Center
11:09PM 38.9667 -84.6500 277° West 117 135 2,500 -1,080 Descending Cincinnati TRACON
11:10PM 39.0000 -84.6667 339° North 111 128 1,700 -780 Descending Cincinnati TRACON
11:11PM 39.0333 -84.6667 360° North 104 120 1,000 -720 Descending Cincinnati TRACON